Terminal Aerodrome Forecast
Issued by NWS Spokane, WA

Home | Current Version | Previous Version | Text Only | Print | Product List | Glossary On
Versions: 1 2 3 4 5 6 7 8 9 10 11 12 13 14
000
FTUS46 KOTX 231729
TAFEAT
TAF
KEAT 231729Z 2318/2418 VRB03KT P6SM SCT070
     FM232000 30010G19KT P6SM VCSH SCT070 BKN120
     FM240400 15004KT P6SM -SHRA OVC040
     FM240800 VRB03KT P6SM -RA OVC020
     FM241300 30007KT P6SM VCSH SCT015 OVC120=

USA.gov is the U.S. government's official web portal to all federal, state and local government web resources and services.